createdAt,value
2022-09-14T00:01:40.982Z,0.67
2022-09-14T00:04:16.053Z,0.77
2022-09-14T00:06:44.109Z,1.40
2022-09-14T00:09:24.363Z,0.77
2022-09-14T00:11:52.641Z,1.43
2022-09-14T00:14:21.090Z,1.20
2022-09-14T00:16:48.974Z,1.10
2022-09-14T00:19:20.533Z,1.07
2022-09-14T00:21:53.273Z,1.60
2022-09-14T00:24:20.896Z,0.93
2022-09-14T00:26:48.967Z,1.30
2022-09-14T00:29:16.442Z,1.27
2022-09-14T00:31:44.039Z,1.27
2022-09-14T00:34:16.102Z,0.90
2022-09-14T00:36:50.205Z,1.37
2022-09-14T00:39:21.337Z,0.80
2022-09-14T00:41:50.752Z,1.00
2022-09-14T00:44:17.826Z,1.03
2022-09-14T00:46:48.701Z,1.10
2022-09-14T00:49:24.374Z,0.60
2022-09-14T00:52:18.238Z,0.87
2022-09-14T00:54:55.629Z,1.20
2022-09-14T00:57:27.597Z,1.10
2022-09-14T00:59:56.532Z,0.97
2022-09-14T01:02:26.227Z,0.90
2022-09-14T01:04:54.174Z,0.87
2022-09-14T01:07:52.302Z,1.30
2022-09-14T01:10:44.191Z,0.80
2022-09-14T01:13:44.151Z,1.10
2022-09-14T01:16:29.349Z,0.90
2022-09-14T01:19:01.898Z,0.83
2022-09-14T01:21:38.355Z,0.93
2022-09-14T01:24:21.404Z,1.10
2022-09-14T01:27:10.031Z,0.87
2022-09-14T01:30:14.960Z,0.70
2022-09-14T01:33:10.986Z,1.07
2022-09-14T01:35:55.665Z,1.27
2022-09-14T01:38:40.446Z,1.03
2022-09-14T01:41:15.309Z,0.87
2022-09-14T01:43:49.065Z,0.50
2022-09-14T01:46:27.181Z,0.77
2022-09-14T01:49:18.458Z,0.73
2022-09-14T01:51:56.556Z,1.00
2022-09-14T01:54:36.368Z,1.00
2022-09-14T01:57:24.256Z,1.27
2022-09-14T01:59:58.104Z,1.40
2022-09-14T02:03:23.034Z,1.17
2022-09-14T02:05:59.033Z,1.30
2022-09-14T02:08:30.413Z,1.10
2022-09-14T02:10:59.390Z,1.33
2022-09-14T02:13:27.454Z,0.80
2022-09-14T02:15:55.503Z,1.20
2022-09-14T02:18:24.510Z,0.90
2022-09-14T02:20:59.252Z,1.00
2022-09-14T02:23:27.125Z,0.90
2022-09-14T02:25:54.920Z,0.83
2022-09-14T02:28:22.477Z,1.50
2022-09-14T02:31:24.414Z,0.77
2022-09-14T02:34:23.852Z,1.90
2022-09-14T02:37:25.539Z,1.63
2022-09-14T02:40:35.851Z,1.10
2022-09-14T02:43:15.215Z,1.60
2022-09-14T02:46:37.210Z,1.10
2022-09-14T02:49:26.909Z,0.97
2022-09-14T02:52:19.792Z,1.13
2022-09-14T02:55:09.842Z,1.27
2022-09-14T02:58:01.250Z,1.07
2022-09-14T03:00:30.127Z,0.80
2022-09-14T03:02:58.143Z,0.90
2022-09-14T03:05:27.122Z,0.90
2022-09-14T03:07:54.363Z,0.83
2022-09-14T03:10:21.941Z,0.90
2022-09-14T03:12:49.613Z,0.67
2022-09-14T03:15:17.206Z,0.97
2022-09-14T03:17:49.402Z,0.90
2022-09-14T03:20:21.910Z,0.57
2022-09-14T03:22:49.753Z,1.40
2022-09-14T03:25:19.396Z,0.73
2022-09-14T03:27:52.420Z,1.10
2022-09-14T03:30:21.123Z,1.33
2022-09-14T03:32:49.273Z,1.20
2022-09-14T03:35:18.122Z,1.37
2022-09-14T03:37:46.936Z,1.27
2022-09-14T03:40:21.593Z,0.93
2022-09-14T03:42:52.064Z,1.03
2022-09-14T03:45:21.703Z,0.87
2022-09-14T03:47:50.254Z,1.20
2022-09-14T03:50:19.328Z,0.73
2022-09-14T03:52:46.916Z,1.00
2022-09-14T03:55:14.888Z,1.30
2022-09-14T03:57:42.572Z,0.90
2022-09-14T04:00:11.572Z,1.50
2022-09-14T04:02:40.325Z,1.10
2022-09-14T04:05:08.418Z,1.03
2022-09-14T04:07:36.070Z,1.30
2022-09-14T04:10:06.078Z,1.10
2022-09-14T04:12:38.398Z,1.27
2022-09-14T04:15:07.790Z,0.70
2022-09-14T04:17:35.628Z,0.83
2022-09-14T04:20:03.459Z,1.30
2022-09-14T04:22:30.833Z,1.50
2022-09-14T04:24:58.351Z,1.23
2022-09-14T04:27:25.549Z,1.20
2022-09-14T04:29:53.129Z,1.07
2022-09-14T04:32:20.710Z,1.33
2022-09-14T04:34:49.804Z,1.00
2022-09-14T04:37:17.441Z,0.77
2022-09-14T04:39:45.248Z,1.17
2022-09-14T04:42:12.532Z,0.80
2022-09-14T04:44:43.085Z,0.97
2022-09-14T04:47:10.424Z,1.27
2022-09-14T04:49:37.581Z,1.17
2022-09-14T04:52:06.642Z,1.17
2022-09-14T04:54:34.780Z,1.73
2022-09-14T04:57:02.504Z,1.03
2022-09-14T04:59:29.536Z,1.10
2022-09-14T05:01:57.019Z,1.00
2022-09-14T05:04:26.745Z,1.47
2022-09-14T05:06:53.953Z,1.13
2022-09-14T05:09:21.762Z,1.23
2022-09-14T05:11:51.852Z,1.50
2022-09-14T05:14:19.033Z,1.27
2022-09-14T05:16:48.053Z,1.43
2022-09-14T05:19:18.414Z,0.60
2022-09-14T05:21:47.050Z,1.10
2022-09-14T05:24:17.860Z,2.03
2022-09-14T05:26:46.251Z,5.87
2022-09-14T05:29:18.990Z,1.90
2022-09-14T05:31:46.720Z,1.13
2022-09-14T05:34:14.533Z,1.43
2022-09-14T05:36:42.145Z,1.20
2022-09-14T05:39:10.788Z,2.27
2022-09-14T05:41:38.470Z,1.20
2022-09-14T05:44:06.859Z,1.30
2022-09-14T05:46:34.844Z,1.03
2022-09-14T05:49:03.345Z,0.90
2022-09-14T05:51:30.532Z,1.47
2022-09-14T05:53:59.187Z,1.53
2022-09-14T05:56:30.222Z,1.30
2022-09-14T05:58:59.379Z,0.93
2022-09-14T06:01:30.672Z,1.10
2022-09-14T06:04:02.528Z,1.57
2022-09-14T06:06:32.094Z,1.27
2022-09-14T06:08:59.972Z,1.33
2022-09-14T06:11:36.447Z,0.90
2022-09-14T06:14:05.640Z,1.23
2022-09-14T06:16:33.786Z,1.23
2022-09-14T06:19:01.549Z,1.87
2022-09-14T06:21:35.770Z,3.13
2022-09-14T06:24:03.647Z,1.20
2022-09-14T06:26:31.305Z,1.83
2022-09-14T06:28:59.169Z,1.03
2022-09-14T06:31:26.384Z,1.60
2022-09-14T06:33:54.070Z,1.30
2022-09-14T06:36:28.835Z,1.37
2022-09-14T06:38:57.020Z,1.10
2022-09-14T06:41:33.070Z,1.17
2022-09-14T06:44:04.250Z,1.37
2022-09-14T06:46:34.519Z,1.27
2022-09-14T06:49:10.275Z,1.07
2022-09-14T06:51:45.182Z,1.30
2022-09-14T06:54:15.528Z,1.47
2022-09-14T06:56:45.213Z,1.40
2022-09-14T06:59:15.982Z,1.37
2022-09-14T07:01:49.965Z,1.33
2022-09-14T07:04:17.973Z,1.20
2022-09-14T07:06:47.671Z,1.00
2022-09-14T07:09:17.003Z,1.37
2022-09-14T07:11:44.922Z,1.20
2022-09-14T07:14:12.900Z,1.40
2022-09-14T07:16:41.433Z,1.73
2022-09-14T07:19:13.499Z,1.43
2022-09-14T07:21:42.290Z,1.10
2022-09-14T07:24:11.469Z,1.10
2022-09-14T07:26:42.424Z,1.47
2022-09-14T07:29:18.657Z,1.53
2022-09-14T07:31:53.924Z,1.10
2022-09-14T07:34:21.869Z,1.23
2022-09-14T07:36:49.353Z,1.17
2022-09-14T07:39:18.186Z,1.53
2022-09-14T07:41:45.620Z,1.23
2022-09-14T07:44:17.946Z,0.97
2022-09-14T07:46:46.590Z,1.13
2022-09-14T07:49:16.266Z,1.40
2022-09-14T07:51:44.399Z,1.57
2022-09-14T07:54:14.005Z,1.20
2022-09-14T07:56:43.505Z,1.53
2022-09-14T08:02:01.124Z,1.13
2022-09-14T08:04:28.889Z,1.30
2022-09-14T08:06:56.401Z,1.57
2022-09-14T08:09:24.128Z,1.57
2022-09-14T08:11:51.133Z,1.00
2022-09-14T08:14:18.632Z,1.40
2022-09-14T08:16:46.407Z,1.23
2022-09-14T08:19:20.530Z,1.10
2022-09-14T08:21:48.633Z,1.63
2022-09-14T08:24:19.988Z,1.70
2022-09-14T08:26:49.126Z,1.50
2022-09-14T08:29:18.995Z,1.40
2022-09-14T08:31:47.997Z,1.47
2022-09-14T08:34:17.478Z,1.10
2022-09-14T08:36:47.488Z,1.57
2022-09-14T08:39:16.491Z,1.40
2022-09-14T08:41:44.610Z,1.10
2022-09-14T08:44:38.163Z,1.20
2022-09-14T08:47:28.039Z,1.40
2022-09-14T08:50:10.758Z,1.50
2022-09-14T08:52:43.749Z,1.13
2022-09-14T08:55:52.315Z,1.40
2022-09-14T08:59:01.236Z,1.50
2022-09-14T09:01:59.778Z,1.13
2022-09-14T09:05:17.222Z,1.43
2022-09-14T09:08:33.502Z,0.97
2022-09-14T09:11:02.718Z,1.27
2022-09-14T09:13:36.257Z,1.23
2022-09-14T09:16:10.371Z,0.90
2022-09-14T09:18:49.744Z,1.07
2022-09-14T09:21:20.265Z,1.03
2022-09-14T09:23:47.758Z,0.63
2022-09-14T09:26:33.329Z,1.43
2022-09-14T09:29:03.646Z,1.20
2022-09-14T09:31:34.879Z,0.90
2022-09-14T09:34:02.944Z,1.03
2022-09-14T09:36:38.884Z,1.27
2022-09-14T09:39:06.885Z,0.87
2022-09-14T09:42:01.532Z,0.93
2022-09-14T09:44:29.319Z,1.20
2022-09-14T09:47:02.168Z,1.07
2022-09-14T09:49:39.455Z,1.13
2022-09-14T09:52:11.534Z,1.00
2022-09-14T09:54:52.801Z,0.60
2022-09-14T09:57:36.199Z,0.80
2022-09-14T10:00:14.066Z,1.70
2022-09-14T10:02:42.270Z,1.47
2022-09-14T10:05:22.981Z,1.70
2022-09-14T10:07:50.422Z,1.43
2022-09-14T10:10:24.043Z,1.23
2022-09-14T10:12:56.927Z,1.00
2022-09-14T10:15:34.087Z,1.00
2022-09-14T10:18:05.766Z,1.00
2022-09-14T10:20:33.439Z,1.17
2022-09-14T10:23:18.890Z,1.37
2022-09-14T10:25:52.509Z,1.80
2022-09-14T10:28:28.481Z,1.37
2022-09-14T10:31:01.402Z,1.47
2022-09-14T10:33:30.479Z,1.67
2022-09-14T10:36:19.756Z,1.50
2022-09-14T10:39:16.444Z,1.37
2022-09-14T10:42:43.392Z,1.77
2022-09-14T10:45:16.486Z,1.67
2022-09-14T10:48:06.691Z,2.27
2022-09-14T10:51:23.035Z,1.43
2022-09-14T10:54:01.718Z,2.07
2022-09-14T10:57:07.059Z,1.17
2022-09-14T10:59:55.377Z,1.43
2022-09-14T11:03:10.370Z,2.20
2022-09-14T11:06:06.197Z,1.63
2022-09-14T11:08:37.429Z,1.77
2022-09-14T11:11:43.762Z,1.40
2022-09-14T11:14:46.021Z,1.53
2022-09-14T11:17:57.600Z,1.33
2022-09-14T11:20:28.519Z,1.67
2022-09-14T11:23:11.310Z,1.87
2022-09-14T11:25:55.680Z,1.60
2022-09-14T11:28:32.383Z,1.80
2022-09-14T11:31:12.750Z,2.10
2022-09-14T11:34:07.020Z,1.60
2022-09-14T11:36:59.185Z,2.03
2022-09-14T11:39:43.139Z,1.50
2022-09-14T11:42:14.698Z,1.90
2022-09-14T11:44:47.200Z,1.10
2022-09-14T11:47:20.006Z,1.80
2022-09-14T11:50:11.158Z,1.60
2022-09-14T11:52:38.584Z,1.50
2022-09-14T11:55:18.023Z,1.57
2022-09-14T11:57:47.231Z,1.60
2022-09-14T12:00:23.885Z,2.13
2022-09-14T12:03:18.051Z,1.73
2022-09-14T12:05:47.700Z,1.10
2022-09-14T12:08:31.889Z,1.50
2022-09-14T12:11:08.697Z,1.60
2022-09-14T12:13:38.112Z,1.17
2022-09-14T12:16:10.092Z,2.23
2022-09-14T12:18:56.589Z,1.63
2022-09-14T12:21:29.743Z,1.37
2022-09-14T12:23:58.148Z,2.00
2022-09-14T12:26:32.913Z,1.60
2022-09-14T12:29:07.841Z,1.23
2022-09-14T12:31:56.246Z,1.10
2022-09-14T12:34:32.275Z,1.67
2022-09-14T12:37:32.051Z,1.50
2022-09-14T12:40:31.679Z,1.53
2022-09-14T12:43:33.930Z,1.30
2022-09-14T12:46:31.802Z,1.47
2022-09-14T12:49:22.569Z,1.70
2022-09-14T12:51:51.473Z,1.60
2022-09-14T12:54:31.577Z,1.73
2022-09-14T12:57:03.601Z,1.80
2022-09-14T13:00:08.534Z,1.40
2022-09-14T13:03:18.734Z,1.57
2022-09-14T13:05:49.205Z,0.90
2022-09-14T13:08:24.063Z,1.60
2022-09-14T13:10:55.445Z,1.60
2022-09-14T13:13:28.726Z,1.67
2022-09-14T13:16:06.252Z,1.17
2022-09-14T13:18:36.495Z,1.53
2022-09-14T13:21:24.971Z,1.73
2022-09-14T13:23:53.085Z,1.57
2022-09-14T13:26:24.472Z,1.20
2022-09-14T13:28:54.663Z,1.93
2022-09-14T13:31:35.536Z,1.50
2022-09-14T13:34:05.436Z,1.33
2022-09-14T13:36:40.607Z,1.47
2022-09-14T13:39:26.816Z,1.60
2022-09-14T13:41:56.054Z,1.33
2022-09-14T13:44:37.007Z,4.97
2022-09-14T13:47:06.431Z,1.70
2022-09-14T13:49:35.797Z,1.53
2022-09-14T13:52:25.876Z,2.10
2022-09-14T13:55:24.341Z,1.20
2022-09-14T13:58:09.619Z,1.80
2022-09-14T14:01:07.637Z,1.33
2022-09-14T14:03:41.124Z,1.00
2022-09-14T14:06:29.419Z,1.10
2022-09-14T14:09:08.250Z,1.63
2022-09-14T14:11:53.762Z,1.40
2022-09-14T14:14:31.098Z,1.10
2022-09-14T14:17:14.099Z,1.23
2022-09-14T14:19:43.961Z,1.13
2022-09-14T14:22:23.962Z,1.10
2022-09-14T14:27:46.974Z,1.43
2022-09-14T14:30:21.183Z,1.30
2022-09-14T14:32:54.795Z,0.90
2022-09-14T14:35:31.652Z,1.13
2022-09-14T14:37:59.335Z,1.00
2022-09-14T14:40:28.232Z,1.40
2022-09-14T14:42:58.380Z,1.17
2022-09-14T14:45:27.408Z,1.10
2022-09-14T14:47:55.994Z,1.27
2022-09-14T14:50:27.840Z,0.80
2022-09-14T14:52:55.568Z,1.03
2022-09-14T14:55:24.876Z,0.97
2022-09-14T14:57:52.345Z,3.37
2022-09-14T15:00:25.876Z,2.43
2022-09-14T15:02:53.668Z,1.63
2022-09-14T15:05:21.596Z,1.40
2022-09-14T15:07:52.214Z,1.23
2022-09-14T15:10:20.965Z,1.30
2022-09-14T15:12:48.398Z,1.17
2022-09-14T15:15:20.162Z,1.17
2022-09-14T15:17:47.823Z,1.80
2022-09-14T15:20:15.498Z,1.10
2022-09-14T15:22:43.726Z,1.07
2022-09-14T15:25:13.224Z,0.97
2022-09-14T15:27:41.341Z,0.90
2022-09-14T15:30:12.006Z,0.97
2022-09-14T15:32:41.725Z,1.07
2022-09-14T15:35:14.454Z,0.90
2022-09-14T15:37:43.221Z,1.33
2022-09-14T15:40:11.109Z,1.27
2022-09-14T15:42:39.110Z,1.10
2022-09-14T15:45:07.458Z,1.20
2022-09-14T15:47:36.559Z,1.37
2022-09-14T15:50:06.315Z,1.00
2022-09-14T15:52:37.178Z,1.40
2022-09-14T15:55:07.704Z,1.93
2022-09-14T15:57:36.344Z,1.33
2022-09-14T16:00:08.907Z,1.83
2022-09-14T16:02:36.761Z,2.20
2022-09-14T16:05:04.202Z,2.27
2022-09-14T16:07:31.777Z,1.63
2022-09-14T16:09:59.589Z,1.57
2022-09-14T16:12:27.490Z,1.60
2022-09-14T16:14:54.688Z,1.33
2022-09-14T16:17:22.589Z,1.33
2022-09-14T16:19:49.861Z,1.50
2022-09-14T16:22:17.629Z,1.80
2022-09-14T16:24:48.003Z,6.20
2022-09-14T16:27:15.567Z,2.13
2022-09-14T16:29:43.396Z,1.50
2022-09-14T16:32:11.059Z,2.00
2022-09-14T16:34:38.901Z,1.60
2022-09-14T16:37:06.130Z,1.87
2022-09-14T16:39:35.050Z,2.33
2022-09-14T16:42:02.946Z,2.07
2022-09-14T16:44:30.356Z,2.00
2022-09-14T16:46:59.647Z,1.93
2022-09-14T16:49:28.354Z,2.07
2022-09-14T16:51:56.922Z,2.07
2022-09-14T16:54:26.019Z,2.10
2022-09-14T16:56:59.432Z,1.73
2022-09-14T16:59:27.864Z,1.83
2022-09-14T17:01:56.410Z,2.30
2022-09-14T17:04:27.104Z,1.40
2022-09-14T17:06:56.186Z,2.10
2022-09-14T17:09:27.959Z,1.63
2022-09-14T17:11:57.790Z,1.90
2022-09-14T17:14:32.363Z,2.07
2022-09-14T17:17:00.507Z,1.57
2022-09-14T17:19:28.693Z,1.73
2022-09-14T17:21:56.206Z,1.97
2022-09-14T17:24:24.481Z,2.23
2022-09-14T17:26:52.382Z,1.97
2022-09-14T17:29:19.816Z,1.50
2022-09-14T17:31:47.434Z,1.60
2022-09-14T17:34:17.217Z,2.07
2022-09-14T17:36:45.716Z,1.37
2022-09-14T17:39:15.597Z,2.17
2022-09-14T17:41:44.186Z,1.97
2022-09-14T17:44:14.779Z,1.97
2022-09-14T17:46:52.860Z,1.53
2022-09-14T17:49:23.246Z,2.13
2022-09-14T17:51:51.557Z,2.77
2022-09-14T17:54:20.276Z,2.50
2022-09-14T17:56:52.888Z,1.83
2022-09-14T17:59:21.798Z,2.80
2022-09-14T18:01:50.913Z,2.40
2022-09-14T18:04:18.991Z,2.00
2022-09-14T18:06:49.491Z,2.40
2022-09-14T18:09:22.370Z,1.77
2022-09-14T18:11:51.205Z,2.00
2022-09-14T18:14:19.864Z,2.00
2022-09-14T18:16:48.151Z,2.27
2022-09-14T18:19:16.904Z,1.53
2022-09-14T18:21:52.158Z,1.40
2022-09-14T18:24:23.973Z,2.13
2022-09-14T18:26:52.484Z,2.20
2022-09-14T18:29:21.965Z,2.17
2022-09-14T18:31:55.501Z,1.60
2022-09-14T18:34:26.109Z,2.10
2022-09-14T18:36:58.024Z,1.67
2022-09-14T18:39:26.150Z,2.03
2022-09-14T18:41:55.028Z,1.50
2022-09-14T18:44:24.869Z,1.90
2022-09-14T18:46:53.424Z,2.00
2022-09-14T18:49:21.739Z,2.30
2022-09-14T18:51:50.825Z,1.80
2022-09-14T18:54:27.284Z,2.37
2022-09-14T18:56:56.544Z,2.53
2022-09-14T18:59:24.854Z,2.27
2022-09-14T19:01:53.052Z,2.17
2022-09-14T19:04:21.110Z,2.20
2022-09-14T19:06:49.726Z,2.03
2022-09-14T19:09:20.499Z,2.30
2022-09-14T19:11:48.690Z,2.00
2022-09-14T19:14:17.917Z,2.50
2022-09-14T19:16:46.247Z,1.97
2022-09-14T19:19:18.142Z,1.90
2022-09-14T19:21:46.798Z,2.60
2022-09-14T19:24:17.050Z,2.20
2022-09-14T19:26:51.268Z,2.37
2022-09-14T19:29:24.217Z,2.40
2022-09-14T19:31:53.400Z,1.70
2022-09-14T19:34:23.656Z,2.20
2022-09-14T19:36:53.332Z,1.70
2022-09-14T19:39:26.905Z,2.00
2022-09-14T19:41:54.575Z,2.07
2022-09-14T19:44:23.263Z,2.03
2022-09-14T19:46:51.318Z,2.33
2022-09-14T19:49:22.947Z,3.03
2022-09-14T19:51:50.830Z,2.20
2022-09-14T19:54:21.060Z,2.40
2022-09-14T19:56:48.406Z,1.90
2022-09-14T19:59:16.796Z,1.70
2022-09-14T20:01:45.218Z,1.93
2022-09-14T20:04:13.199Z,2.73
2022-09-14T20:06:49.761Z,2.93
2022-09-14T20:09:20.970Z,3.00
2022-09-14T20:11:51.657Z,2.83
2022-09-14T20:14:23.310Z,2.57
2022-09-14T20:16:58.092Z,2.23
2022-09-14T20:19:28.958Z,2.07
2022-09-14T20:21:58.912Z,2.13
2022-09-14T20:24:29.343Z,2.20
2022-09-14T20:27:01.347Z,1.97
2022-09-14T20:29:31.899Z,1.80
2022-09-14T20:31:59.964Z,2.60
2022-09-14T20:34:27.650Z,2.20
2022-09-14T20:36:56.247Z,2.80
2022-09-14T20:39:25.271Z,2.37
2022-09-14T20:41:53.044Z,2.03
2022-09-14T20:44:23.314Z,2.33
2022-09-14T20:46:52.003Z,2.53
2022-09-14T20:49:23.439Z,2.73
2022-09-14T20:51:55.067Z,2.53
2022-09-14T20:54:23.526Z,2.33
2022-09-14T20:56:51.054Z,3.30
2022-09-14T20:59:19.466Z,1.73
2022-09-14T21:01:49.931Z,2.23
2022-09-14T21:04:21.492Z,2.13
2022-09-14T21:06:52.966Z,2.90
2022-09-14T21:09:24.107Z,2.13
2022-09-14T21:11:53.394Z,2.40
2022-09-14T21:14:22.243Z,2.33
2022-09-14T21:16:55.172Z,2.47
2022-09-14T21:19:28.562Z,2.10
2022-09-14T21:21:58.644Z,2.33
2022-09-14T21:24:27.049Z,2.10
2022-09-14T21:26:57.260Z,2.13
2022-09-14T21:29:24.778Z,1.50
2022-09-14T21:31:54.821Z,1.67
2022-09-14T21:34:22.277Z,1.87
2022-09-14T21:36:53.020Z,2.27
2022-09-14T21:39:24.971Z,2.37
2022-09-14T21:41:59.128Z,2.30
2022-09-14T21:44:38.252Z,1.90
2022-09-14T21:47:09.105Z,2.03
2022-09-14T21:49:36.211Z,1.60
2022-09-14T21:52:04.278Z,1.90
2022-09-14T21:54:31.775Z,2.27
2022-09-14T21:57:01.345Z,3.03
2022-09-14T21:59:28.861Z,2.93
2022-09-14T22:01:56.381Z,2.93
2022-09-14T22:04:26.436Z,3.27
2022-09-14T22:06:54.531Z,2.03
2022-09-14T22:09:26.328Z,2.50
2022-09-14T22:11:54.246Z,3.53
2022-09-14T22:14:26.011Z,2.67
2022-09-14T22:16:54.158Z,3.07
2022-09-14T22:19:28.443Z,3.53
2022-09-14T22:21:56.771Z,3.07
2022-09-14T22:24:38.042Z,3.00
2022-09-14T22:27:10.133Z,2.67
2022-09-14T22:29:40.881Z,3.40
2022-09-14T22:32:12.177Z,2.37
2022-09-14T22:34:41.969Z,2.33
2022-09-14T22:37:12.384Z,2.77
2022-09-14T22:39:39.919Z,3.23
2022-09-14T22:42:10.781Z,3.20
2022-09-14T22:44:38.765Z,2.67
2022-09-14T22:47:06.403Z,2.97
2022-09-14T22:49:34.022Z,2.87
2022-09-14T22:52:04.577Z,3.43
2022-09-14T22:54:32.152Z,2.67
2022-09-14T22:57:00.940Z,2.87
2022-09-14T22:59:28.974Z,2.90
2022-09-14T23:01:56.425Z,2.83
2022-09-14T23:04:24.293Z,3.03
2022-09-14T23:06:54.453Z,2.37
2022-09-14T23:09:22.661Z,3.30
2022-09-14T23:11:49.904Z,3.20
2022-09-14T23:14:17.732Z,3.80
2022-09-14T23:16:47.784Z,2.87
2022-09-14T23:19:18.512Z,2.83
2022-09-14T23:21:47.403Z,2.90
2022-09-14T23:24:18.230Z,2.83
2022-09-14T23:26:45.752Z,2.20
2022-09-14T23:29:17.504Z,2.70
2022-09-14T23:31:45.807Z,2.50
2022-09-14T23:34:13.378Z,2.60
2022-09-14T23:36:41.085Z,2.47
2022-09-14T23:39:08.907Z,2.20
2022-09-14T23:41:39.370Z,2.50
2022-09-14T23:44:07.460Z,2.27
2022-09-14T23:46:35.460Z,2.07
2022-09-14T23:49:03.014Z,2.30
2022-09-14T23:51:32.412Z,2.47
2022-09-14T23:53:59.655Z,3.07
2022-09-14T23:56:31.930Z,2.53
2022-09-14T23:59:02.300Z,3.00
